sensor_id;sensor_type;location;lat;lon;timestamp;pressure;altitude;pressure_sealevel;temperature;humidity
31717;BME280;18301;51.076;17.046;2023-06-22T00:04:07;100351.00;;;25.26;72.42
31717;BME280;18301;51.076;17.046;2023-06-22T00:09:09;100347.59;;;25.24;72.15
31717;BME280;18301;51.076;17.046;2023-06-22T00:14:11;100361.00;;;25.27;72.22
31717;BME280;18301;51.076;17.046;2023-06-22T00:19:13;100364.41;;;25.29;71.98
31717;BME280;18301;51.076;17.046;2023-06-22T00:24:14;100361.81;;;25.21;72.26
31717;BME280;18301;51.076;17.046;2023-06-22T00:29:16;100375.44;;;25.16;72.42
31717;BME280;18301;51.076;17.046;2023-06-22T00:34:18;100392.00;;;25.16;72.74
31717;BME280;18301;51.076;17.046;2023-06-22T00:39:19;100397.94;;;25.13;72.90
31717;BME280;18301;51.076;17.046;2023-06-22T00:44:21;100388.75;;;25.06;73.83
31717;BME280;18301;51.076;17.046;2023-06-22T00:49:22;100393.84;;;25.02;73.71
31717;BME280;18301;51.076;17.046;2023-06-22T00:54:24;100402.53;;;25.06;73.48
31717;BME280;18301;51.076;17.046;2023-06-22T00:59:26;100402.13;;;25.02;73.94
31717;BME280;18301;51.076;17.046;2023-06-22T01:04:35;100394.47;;;24.97;73.68
31717;BME280;18301;51.076;17.046;2023-06-22T01:09:53;100388.47;;;24.87;73.93
31717;BME280;18301;51.076;17.046;2023-06-22T01:15:04;100408.03;;;24.92;74.03
31717;BME280;18301;51.076;17.046;2023-06-22T01:20:09;100416.06;;;24.80;75.47
31717;BME280;18301;51.076;17.046;2023-06-22T01:25:19;100406.88;;;24.67;75.26
31717;BME280;18301;51.076;17.046;2023-06-22T01:30:23;100410.47;;;24.61;76.48
31717;BME280;18301;51.076;17.046;2023-06-22T01:35:28;100416.28;;;24.44;76.91
31717;BME280;18301;51.076;17.046;2023-06-22T01:40:32;100421.31;;;24.34;76.89
31717;BME280;18301;51.076;17.046;2023-06-22T01:45:34;100418.22;;;24.16;77.66
31717;BME280;18301;51.076;17.046;2023-06-22T01:50:35;100428.81;;;24.12;77.89
31717;BME280;18301;51.076;17.046;2023-06-22T01:55:37;100425.56;;;24.02;78.56
31717;BME280;18301;51.076;17.046;2023-06-22T02:00:40;100416.53;;;23.86;79.04
31717;BME280;18301;51.076;17.046;2023-06-22T02:05:55;100417.91;;;23.76;79.11
31717;BME280;18301;51.076;17.046;2023-06-22T02:10:59;100421.81;;;23.66;80.69
31717;BME280;18301;51.076;17.046;2023-06-22T02:16:02;100423.22;;;23.56;80.60
31717;BME280;18301;51.076;17.046;2023-06-22T02:21:03;100420.66;;;23.54;81.14
31717;BME280;18301;51.076;17.046;2023-06-22T02:26:05;100417.44;;;23.51;80.81
31717;BME280;18301;51.076;17.046;2023-06-22T02:31:06;100417.13;;;23.39;81.53
31717;BME280;18301;51.076;17.046;2023-06-22T02:36:08;100431.09;;;23.37;81.60
31717;BME280;18301;51.076;17.046;2023-06-22T02:41:10;100432.00;;;23.23;82.50
31717;BME280;18301;51.076;17.046;2023-06-22T02:46:14;100420.25;;;23.14;82.63
31717;BME280;18301;51.076;17.046;2023-06-22T02:51:15;100422.75;;;23.09;82.73
31717;BME280;18301;51.076;17.046;2023-06-22T02:56:17;100421.88;;;23.09;82.93
31717;BME280;18301;51.076;17.046;2023-06-22T03:01:19;100425.88;;;23.06;83.08
31717;BME280;18301;51.076;17.046;2023-06-22T03:06:25;100431.41;;;23.06;84.11
31717;BME280;18301;51.076;17.046;2023-06-22T03:11:33;100429.66;;;23.05;84.38
31717;BME280;18301;51.076;17.046;2023-06-22T03:16:35;100436.91;;;23.06;84.63
31717;BME280;18301;51.076;17.046;2023-06-22T03:21:38;100443.13;;;23.15;83.90
31717;BME280;18301;51.076;17.046;2023-06-22T03:26:40;100453.44;;;23.28;84.74
31717;BME280;18301;51.076;17.046;2023-06-22T03:31:41;100448.09;;;23.84;83.15
31717;BME280;18301;51.076;17.046;2023-06-22T03:36:43;100461.09;;;24.18;80.70
31717;BME280;18301;51.076;17.046;2023-06-22T03:41:46;100468.53;;;23.96;80.67
31717;BME280;18301;51.076;17.046;2023-06-22T03:46:48;100468.00;;;23.86;81.20
31717;BME280;18301;51.076;17.046;2023-06-22T03:51:49;100470.72;;;23.79;81.65
31717;BME280;18301;51.076;17.046;2023-06-22T03:56:51;100468.28;;;23.70;82.05
31717;BME280;18301;51.076;17.046;2023-06-22T04:01:52;100479.03;;;23.86;81.73
31717;BME280;18301;51.076;17.046;2023-06-22T04:06:54;100485.94;;;23.97;81.62
31717;BME280;18301;51.076;17.046;2023-06-22T04:11:55;100487.94;;;24.09;80.96
31717;BME280;18301;51.076;17.046;2023-06-22T04:16:58;100478.69;;;24.17;80.66
31717;BME280;18301;51.076;17.046;2023-06-22T04:21:59;100493.81;;;24.28;80.86
31717;BME280;18301;51.076;17.046;2023-06-22T04:27:01;100493.28;;;24.39;80.28
31717;BME280;18301;51.076;17.046;2023-06-22T04:32:04;100494.19;;;24.46;80.15
31717;BME280;18301;51.076;17.046;2023-06-22T04:37:06;100499.31;;;24.49;79.99
31717;BME280;18301;51.076;17.046;2023-06-22T04:42:08;100498.09;;;24.58;79.70
31717;BME280;18301;51.076;17.046;2023-06-22T04:47:09;100506.13;;;24.53;79.87
31717;BME280;18301;51.076;17.046;2023-06-22T04:52:12;100518.63;;;24.49;79.95
31717;BME280;18301;51.076;17.046;2023-06-22T04:57:14;100513.59;;;24.60;80.16
31717;BME280;18301;51.076;17.046;2023-06-22T05:02:15;100534.03;;;24.72;80.20
31717;BME280;18301;51.076;17.046;2023-06-22T05:07:17;100525.59;;;24.80;79.52
31717;BME280;18301;51.076;17.046;2023-06-22T05:12:18;100524.78;;;24.86;79.92
31717;BME280;18301;51.076;17.046;2023-06-22T05:17:20;100523.16;;;24.98;79.08
31717;BME280;18301;51.076;17.046;2023-06-22T05:22:21;100528.28;;;25.01;79.40
31717;BME280;18301;51.076;17.046;2023-06-22T05:27:23;100516.50;;;25.21;77.50
31717;BME280;18301;51.076;17.046;2023-06-22T05:32:24;100519.72;;;25.31;76.04
31717;BME280;18301;51.076;17.046;2023-06-22T05:37:26;100511.66;;;25.36;74.80
31717;BME280;18301;51.076;17.046;2023-06-22T05:42:28;100518.69;;;25.45;73.21
31717;BME280;18301;51.076;17.046;2023-06-22T05:47:29;100524.22;;;25.45;73.67
31717;BME280;18301;51.076;17.046;2023-06-22T05:52:31;100531.09;;;25.63;73.19
31717;BME280;18301;51.076;17.046;2023-06-22T05:57:32;100535.34;;;25.72;69.42
31717;BME280;18301;51.076;17.046;2023-06-22T06:02:34;100532.81;;;25.77;69.16
31717;BME280;18301;51.076;17.046;2023-06-22T06:07:37;100541.31;;;25.69;69.06
31717;BME280;18301;51.076;17.046;2023-06-22T06:12:38;100542.00;;;25.84;67.65
31717;BME280;18301;51.076;17.046;2023-06-22T06:17:50;100548.19;;;26.00;67.31
31717;BME280;18301;51.076;17.046;2023-06-22T06:22:53;100549.88;;;25.94;68.61
31717;BME280;18301;51.076;17.046;2023-06-22T06:27:54;100549.28;;;26.25;66.52
31717;BME280;18301;51.076;17.046;2023-06-22T06:32:56;100557.13;;;26.41;67.85
31717;BME280;18301;51.076;17.046;2023-06-22T06:37:57;100557.78;;;26.57;64.50
31717;BME280;18301;51.076;17.046;2023-06-22T06:42:59;100561.81;;;26.48;63.35
31717;BME280;18301;51.076;17.046;2023-06-22T07:04:59;100573.94;;;26.86;62.57
31717;BME280;18301;51.076;17.046;2023-06-22T07:10:01;100578.19;;;26.96;63.49
31717;BME280;18301;51.076;17.046;2023-06-22T07:15:08;100591.56;;;27.12;63.08
31717;BME280;18301;51.076;17.046;2023-06-22T07:20:11;100588.63;;;27.07;63.33
31717;BME280;18301;51.076;17.046;2023-06-22T07:25:15;100591.78;;;27.11;63.82
31717;BME280;18301;51.076;17.046;2023-06-22T07:30:18;100592.06;;;26.89;63.93
31717;BME280;18301;51.076;17.046;2023-06-22T07:35:19;100578.59;;;27.13;64.30
31717;BME280;18301;51.076;17.046;2023-06-22T07:40:21;100578.31;;;27.41;63.14
31717;BME280;18301;51.076;17.046;2023-06-22T07:45:22;100578.59;;;27.64;62.14
31717;BME280;18301;51.076;17.046;2023-06-22T07:50:24;100583.56;;;27.49;62.44
31717;BME280;18301;51.076;17.046;2023-06-22T07:55:26;100576.91;;;27.63;63.59
31717;BME280;18301;51.076;17.046;2023-06-22T08:00:27;100570.72;;;27.61;61.47
31717;BME280;18301;51.076;17.046;2023-06-22T08:05:29;100565.28;;;27.86;60.83
31717;BME280;18301;51.076;17.046;2023-06-22T08:10:31;100562.03;;;27.96;60.30
31717;BME280;18301;51.076;17.046;2023-06-22T08:15:33;100556.66;;;28.01;60.34
31717;BME280;18301;51.076;17.046;2023-06-22T08:20:34;100566.91;;;28.26;59.58
31717;BME280;18301;51.076;17.046;2023-06-22T08:25:36;100563.06;;;28.58;59.34
31717;BME280;18301;51.076;17.046;2023-06-22T08:30:38;100553.97;;;28.70;58.16
31717;BME280;18301;51.076;17.046;2023-06-22T08:35:39;100532.34;;;28.53;58.44
31717;BME280;18301;51.076;17.046;2023-06-22T08:40:41;100531.59;;;28.39;58.12
31717;BME280;18301;51.076;17.046;2023-06-22T08:45:42;100534.16;;;28.41;59.05
31717;BME280;18301;51.076;17.046;2023-06-22T08:50:45;100524.94;;;28.65;58.61
31717;BME280;18301;51.076;17.046;2023-06-22T08:55:47;100528.75;;;28.71;57.46
31717;BME280;18301;51.076;17.046;2023-06-22T09:00:48;100516.38;;;28.23;58.45
31717;BME280;18301;51.076;17.046;2023-06-22T09:05:50;100545.34;;;28.28;57.64
31717;BME280;18301;51.076;17.046;2023-06-22T09:10:51;100532.56;;;28.27;57.89
31717;BME280;18301;51.076;17.046;2023-06-22T09:15:53;100525.88;;;28.59;56.96
31717;BME280;18301;51.076;17.046;2023-06-22T09:20:54;100530.84;;;28.76;55.60
31717;BME280;18301;51.076;17.046;2023-06-22T09:25:56;100534.00;;;28.79;54.61
31717;BME280;18301;51.076;17.046;2023-06-22T09:30:57;100524.50;;;28.68;56.35
31717;BME280;18301;51.076;17.046;2023-06-22T09:36:00;100534.06;;;28.54;56.33
31717;BME280;18301;51.076;17.046;2023-06-22T09:41:02;100527.50;;;28.67;56.02
31717;BME280;18301;51.076;17.046;2023-06-22T09:46:04;100521.66;;;28.94;54.08
31717;BME280;18301;51.076;17.046;2023-06-22T09:51:05;100514.41;;;28.92;52.64
31717;BME280;18301;51.076;17.046;2023-06-22T09:56:07;100509.88;;;29.17;51.81
31717;BME280;18301;51.076;17.046;2023-06-22T10:01:13;100513.06;;;29.69;52.48
31717;BME280;18301;51.076;17.046;2023-06-22T10:06:17;100527.41;;;30.08;50.16
31717;BME280;18301;51.076;17.046;2023-06-22T10:11:19;100515.06;;;29.43;52.25
31717;BME280;18301;51.076;17.046;2023-06-22T10:16:20;100511.97;;;29.51;51.62
31717;BME280;18301;51.076;17.046;2023-06-22T10:21:22;100498.53;;;29.67;51.85
31717;BME280;18301;51.076;17.046;2023-06-22T10:26:23;100495.94;;;29.95;50.42
31717;BME280;18301;51.076;17.046;2023-06-22T10:31:25;100488.31;;;29.91;50.89
31717;BME280;18301;51.076;17.046;2023-06-22T10:36:26;100475.03;;;29.93;52.71
31717;BME280;18301;51.076;17.046;2023-06-22T10:41:28;100467.53;;;30.05;51.34
31717;BME280;18301;51.076;17.046;2023-06-22T10:46:31;100472.78;;;30.25;51.09
31717;BME280;18301;51.076;17.046;2023-06-22T10:51:32;100465.59;;;30.05;49.95
31717;BME280;18301;51.076;17.046;2023-06-22T10:56:34;100468.72;;;29.97;49.98
31717;BME280;18301;51.076;17.046;2023-06-22T11:01:36;100458.78;;;30.01;50.07
31717;BME280;18301;51.076;17.046;2023-06-22T11:06:38;100452.75;;;30.16;49.47
31717;BME280;18301;51.076;17.046;2023-06-22T11:11:39;100454.97;;;30.49;49.63
31717;BME280;18301;51.076;17.046;2023-06-22T11:16:41;100456.06;;;30.48;48.40
31717;BME280;18301;51.076;17.046;2023-06-22T11:21:42;100460.28;;;30.51;48.42
31717;BME280;18301;51.076;17.046;2023-06-22T11:26:44;100457.41;;;30.58;48.02
31717;BME280;18301;51.076;17.046;2023-06-22T11:31:46;100452.75;;;30.16;47.96
31717;BME280;18301;51.076;17.046;2023-06-22T11:36:47;100441.19;;;30.43;47.59
31717;BME280;18301;51.076;17.046;2023-06-22T11:41:49;100449.97;;;30.16;45.40
31717;BME280;18301;51.076;17.046;2023-06-22T11:46:51;100432.97;;;29.71;45.10
31717;BME280;18301;51.076;17.046;2023-06-22T11:51:53;100426.06;;;30.27;46.47
31717;BME280;18301;51.076;17.046;2023-06-22T11:56:54;100432.22;;;30.53;44.12
31717;BME280;18301;51.076;17.046;2023-06-22T12:01:57;100428.94;;;30.56;45.61
31717;BME280;18301;51.076;17.046;2023-06-22T12:06:59;100418.78;;;30.49;46.52
31717;BME280;18301;51.076;17.046;2023-06-22T12:12:01;100414.25;;;30.60;45.13
31717;BME280;18301;51.076;17.046;2023-06-22T12:17:03;100402.13;;;30.78;43.58
31717;BME280;18301;51.076;17.046;2023-06-22T12:22:04;100402.41;;;30.65;43.93
31717;BME280;18301;51.076;17.046;2023-06-22T12:27:06;100383.94;;;30.76;44.33
31717;BME280;18301;51.076;17.046;2023-06-22T12:32:07;100389.44;;;30.82;39.53
31717;BME280;18301;51.076;17.046;2023-06-22T12:37:09;100395.63;;;30.61;41.40
31717;BME280;18301;51.076;17.046;2023-06-22T12:42:11;100377.94;;;30.67;42.53
31717;BME280;18301;51.076;17.046;2023-06-22T12:47:13;100375.13;;;30.79;38.41
31717;BME280;18301;51.076;17.046;2023-06-22T12:52:15;100375.84;;;30.74;38.17
31717;BME280;18301;51.076;17.046;2023-06-22T12:57:16;100359.34;;;30.44;40.17
31717;BME280;18301;51.076;17.046;2023-06-22T13:02:19;100364.50;;;30.64;40.36
31717;BME280;18301;51.076;17.046;2023-06-22T13:07:20;100370.56;;;30.61;38.85
31717;BME280;18301;51.076;17.046;2023-06-22T13:12:24;100360.09;;;30.39;40.10
31717;BME280;18301;51.076;17.046;2023-06-22T13:17:25;100352.63;;;30.57;40.38
31717;BME280;18301;51.076;17.046;2023-06-22T13:22:31;100350.44;;;30.82;41.51
31717;BME280;18301;51.076;17.046;2023-06-22T13:27:33;100340.97;;;30.83;40.79
31717;BME280;18301;51.076;17.046;2023-06-22T13:32:35;100344.09;;;30.75;38.72
31717;BME280;18301;51.076;17.046;2023-06-22T13:37:37;100338.06;;;30.66;39.72
31717;BME280;18301;51.076;17.046;2023-06-22T13:42:38;100334.38;;;30.49;40.91
31717;BME280;18301;51.076;17.046;2023-06-22T13:47:40;100331.13;;;30.52;41.49
31717;BME280;18301;51.076;17.046;2023-06-22T13:52:42;100334.28;;;30.84;41.46
31717;BME280;18301;51.076;17.046;2023-06-22T13:57:43;100328.78;;;30.61;44.86
31717;BME280;18301;51.076;17.046;2023-06-22T14:02:45;100326.03;;;30.89;41.81
31717;BME280;18301;51.076;17.046;2023-06-22T14:07:46;100318.75;;;31.17;42.53
31717;BME280;18301;51.076;17.046;2023-06-22T14:12:48;100327.00;;;31.40;43.22
31717;BME280;18301;51.076;17.046;2023-06-22T14:17:49;100315.91;;;31.46;41.44
31717;BME280;18301;51.076;17.046;2023-06-22T14:22:51;100295.59;;;31.33;42.28
31717;BME280;18301;51.076;17.046;2023-06-22T14:27:52;100298.19;;;31.35;42.81
31717;BME280;18301;51.076;17.046;2023-06-22T14:32:54;100281.59;;;31.28;42.72
31717;BME280;18301;51.076;17.046;2023-06-22T14:37:55;100305.75;;;31.23;42.15
31717;BME280;18301;51.076;17.046;2023-06-22T14:42:57;100290.19;;;31.10;42.15
31717;BME280;18301;51.076;17.046;2023-06-22T14:47:58;100279.69;;;31.00;42.37
31717;BME280;18301;51.076;17.046;2023-06-22T14:53:00;100273.78;;;30.96;41.79
31717;BME280;18301;51.076;17.046;2023-06-22T14:58:01;100280.44;;;30.95;42.25
31717;BME280;18301;51.076;17.046;2023-06-22T15:03:04;100277.16;;;30.99;41.77
31717;BME280;18301;51.076;17.046;2023-06-22T15:08:08;100258.78;;;30.57;42.37
31717;BME280;18301;51.076;17.046;2023-06-22T15:13:12;100252.91;;;30.82;41.08
31717;BME280;18301;51.076;17.046;2023-06-22T15:18:14;100256.03;;;30.86;41.86
31717;BME280;18301;51.076;17.046;2023-06-22T15:23:16;100249.31;;;30.70;41.87
31717;BME280;18301;51.076;17.046;2023-06-22T15:28:18;100249.03;;;30.55;42.06
31717;BME280;18301;51.076;17.046;2023-06-22T15:33:19;100251.59;;;30.73;41.90
31717;BME280;18301;51.076;17.046;2023-06-22T15:38:21;100249.72;;;30.62;42.57
31717;BME280;18301;51.076;17.046;2023-06-22T15:43:23;100237.38;;;30.58;42.28
31717;BME280;18301;51.076;17.046;2023-06-22T15:48:24;100232.38;;;30.60;42.92
31717;BME280;18301;51.076;17.046;2023-06-22T15:53:26;100229.31;;;30.73;42.31
31717;BME280;18301;51.076;17.046;2023-06-22T15:58:27;100219.69;;;30.64;41.45
31717;BME280;18301;51.076;17.046;2023-06-22T16:03:29;100220.91;;;30.27;42.29
31717;BME280;18301;51.076;17.046;2023-06-22T16:08:30;100209.66;;;30.22;42.73
31717;BME280;18301;51.076;17.046;2023-06-22T16:13:34;100192.97;;;30.11;42.66
31717;BME280;18301;51.076;17.046;2023-06-22T16:18:36;100195.88;;;30.27;43.09
31717;BME280;18301;51.076;17.046;2023-06-22T16:23:37;100191.44;;;30.03;43.61
31717;BME280;18301;51.076;17.046;2023-06-22T16:28:39;100179.81;;;30.06;43.17
31717;BME280;18301;51.076;17.046;2023-06-22T16:33:41;100189.03;;;29.95;43.79
31717;BME280;18301;51.076;17.046;2023-06-22T16:38:48;100180.47;;;29.96;43.66
31717;BME280;18301;51.076;17.046;2023-06-22T16:43:51;100184.88;;;30.21;43.16
31717;BME280;18301;51.076;17.046;2023-06-22T16:48:53;100175.06;;;29.78;43.68
31717;BME280;18301;51.076;17.046;2023-06-22T16:53:55;100180.50;;;29.73;43.75
31717;BME280;18301;51.076;17.046;2023-06-22T16:58:59;100173.41;;;29.65;44.20
31717;BME280;18301;51.076;17.046;2023-06-22T17:04:09;100162.63;;;29.69;43.59
31717;BME280;18301;51.076;17.046;2023-06-22T17:09:13;100144.25;;;29.44;44.48
31717;BME280;18301;51.076;17.046;2023-06-22T17:14:15;100134.13;;;29.38;44.88
31717;BME280;18301;51.076;17.046;2023-06-22T17:19:17;100131.91;;;29.40;44.61
31717;BME280;18301;51.076;17.046;2023-06-22T17:24:20;100127.09;;;29.47;44.41
31717;BME280;18301;51.076;17.046;2023-06-22T17:29:31;100123.34;;;29.42;44.48
31717;BME280;18301;51.076;17.046;2023-06-22T17:34:35;100121.56;;;29.24;45.13
31717;BME280;18301;51.076;17.046;2023-06-22T17:39:37;100128.09;;;29.18;45.02
31717;BME280;18301;51.076;17.046;2023-06-22T17:44:39;100119.75;;;29.18;45.30
31717;BME280;18301;51.076;17.046;2023-06-22T17:49:42;100112.59;;;29.22;45.32
31717;BME280;18301;51.076;17.046;2023-06-22T17:54:44;100103.16;;;28.99;46.09
31717;BME280;18301;51.076;17.046;2023-06-22T18:00:07;100091.81;;;28.89;46.60
31717;BME280;18301;51.076;17.046;2023-06-22T18:05:12;100080.72;;;28.89;46.59
31717;BME280;18301;51.076;17.046;2023-06-22T18:10:13;100081.69;;;28.83;46.50
31717;BME280;18301;51.076;17.046;2023-06-22T18:15:15;100088.69;;;28.74;47.16
31717;BME280;18301;51.076;17.046;2023-06-22T18:20:18;100084.56;;;28.64;47.53
31717;BME280;18301;51.076;17.046;2023-06-22T18:25:21;100080.81;;;28.59;47.59
31717;BME280;18301;51.076;17.046;2023-06-22T18:30:23;100057.53;;;28.48;47.70
31717;BME280;18301;51.076;17.046;2023-06-22T18:35:25;100060.81;;;28.38;47.51
31717;BME280;18301;51.076;17.046;2023-06-22T18:40:27;100060.69;;;28.21;47.53
31717;BME280;18301;51.076;17.046;2023-06-22T18:45:29;100057.34;;;28.01;46.86
31717;BME280;18301;51.076;17.046;2023-06-22T18:50:41;100051.22;;;28.11;46.61
31717;BME280;18301;51.076;17.046;2023-06-22T18:55:44;100059.03;;;27.72;47.44
31717;BME280;18301;51.076;17.046;2023-06-22T19:00:51;100053.28;;;27.55;47.31
31717;BME280;18301;51.076;17.046;2023-06-22T19:05:53;100059.75;;;27.49;47.22
31717;BME280;18301;51.076;17.046;2023-06-22T19:11:10;100062.22;;;27.39;47.27
31717;BME280;18301;51.076;17.046;2023-06-22T19:16:13;100066.84;;;27.26;47.46
31717;BME280;18301;51.076;17.046;2023-06-22T19:21:21;100053.47;;;27.23;47.49
31717;BME280;18301;51.076;17.046;2023-06-22T19:26:23;100043.56;;;27.09;47.85
31717;BME280;18301;51.076;17.046;2023-06-22T19:31:25;100039.69;;;27.17;47.69
31717;BME280;18301;51.076;17.046;2023-06-22T19:36:33;100039.09;;;26.90;48.44
31717;BME280;18301;51.076;17.046;2023-06-22T19:41:35;100039.81;;;26.60;49.29
31717;BME280;18301;51.076;17.046;2023-06-22T19:46:37;100037.22;;;26.65;48.86
31717;BME280;18301;51.076;17.046;2023-06-22T19:51:38;100025.66;;;26.50;49.03
31717;BME280;18301;51.076;17.046;2023-06-22T19:56:40;100008.84;;;26.45;49.45
31717;BME280;18301;51.076;17.046;2023-06-22T20:01:42;100003.75;;;26.41;49.34
31717;BME280;18301;51.076;17.046;2023-06-22T20:07:02;100019.25;;;26.24;49.73
31717;BME280;18301;51.076;17.046;2023-06-22T20:12:03;100034.56;;;26.20;50.17
31717;BME280;18301;51.076;17.046;2023-06-22T20:17:05;100066.53;;;26.16;50.27
31717;BME280;18301;51.076;17.046;2023-06-22T20:22:10;100075.97;;;26.08;50.38
31717;BME280;18301;51.076;17.046;2023-06-22T20:27:12;100049.59;;;26.06;50.54
31717;BME280;18301;51.076;17.046;2023-06-22T20:32:14;100056.47;;;25.97;50.89
31717;BME280;18301;51.076;17.046;2023-06-22T20:37:17;100064.13;;;25.94;51.02
31717;BME280;18301;51.076;17.046;2023-06-22T20:42:23;100059.03;;;25.91;51.08
31717;BME280;18301;51.076;17.046;2023-06-22T20:47:24;100052.72;;;25.84;51.24
31717;BME280;18301;51.076;17.046;2023-06-22T20:52:26;100050.78;;;25.78;51.30
31717;BME280;18301;51.076;17.046;2023-06-22T20:57:27;100048.53;;;25.68;51.42
31717;BME280;18301;51.076;17.046;2023-06-22T21:02:29;100025.97;;;25.71;51.26
31717;BME280;18301;51.076;17.046;2023-06-22T21:07:30;100017.97;;;25.57;51.84
31717;BME280;18301;51.076;17.046;2023-06-22T21:12:32;100006.03;;;25.63;51.43
31717;BME280;18301;51.076;17.046;2023-06-22T21:17:37;100001.00;;;25.53;51.23
31717;BME280;18301;51.076;17.046;2023-06-22T21:22:40;99989.69;;;25.55;51.04
31717;BME280;18301;51.076;17.046;2023-06-22T21:27:43;99984.00;;;25.49;51.29
31717;BME280;18301;51.076;17.046;2023-06-22T21:32:44;99990.88;;;25.40;51.47
31717;BME280;18301;51.076;17.046;2023-06-22T21:37:46;99970.94;;;25.32;51.52
31717;BME280;18301;51.076;17.046;2023-06-22T21:42:49;99940.41;;;25.20;51.47
31717;BME280;18301;51.076;17.046;2023-06-22T21:47:51;99924.22;;;25.23;51.59
31717;BME280;18301;51.076;17.046;2023-06-22T21:52:53;99903.47;;;25.14;51.58
31717;BME280;18301;51.076;17.046;2023-06-22T21:57:54;99866.91;;;25.19;51.26
31717;BME280;18301;51.076;17.046;2023-06-22T22:02:55;99853.53;;;25.09;51.29
31717;BME280;18301;51.076;17.046;2023-06-22T22:07:57;62191.22;;;-145.06;100.00
31717;BME280;18301;51.076;17.046;2023-06-22T22:12:59;62191.22;;;-145.06;100.00
31717;BME280;18301;51.076;17.046;2023-06-22T22:18:00;62191.22;;;-145.06;100.00
31717;BME280;18301;51.076;17.046;2023-06-22T22:23:05;62191.22;;;-145.06;100.00
31717;BME280;18301;51.076;17.046;2023-06-22T22:28:08;62191.22;;;-145.06;100.00
31717;BME280;18301;51.076;17.046;2023-06-22T22:33:10;62191.22;;;-145.06;100.00
31717;BME280;18301;51.076;17.046;2023-06-22T22:38:11;62191.22;;;-145.06;100.00
31717;BME280;18301;51.076;17.046;2023-06-22T22:43:13;62191.22;;;-145.06;100.00
31717;BME280;18301;51.076;17.046;2023-06-22T22:48:14;62191.22;;;-145.06;100.00
31717;BME280;18301;51.076;17.046;2023-06-22T22:53:16;62191.22;;;-145.06;100.00
31717;BME280;18301;51.076;17.046;2023-06-22T22:58:19;62191.22;;;-145.06;100.00
31717;BME280;18301;51.076;17.046;2023-06-22T23:03:20;62191.22;;;-145.06;100.00
31717;BME280;18301;51.076;17.046;2023-06-22T23:08:22;62191.22;;;-145.06;100.00
31717;BME280;18301;51.076;17.046;2023-06-22T23:13:24;62191.22;;;-145.06;100.00
31717;BME280;18301;51.076;17.046;2023-06-22T23:18:28;62191.22;;;-145.06;100.00
31717;BME280;18301;51.076;17.046;2023-06-22T23:23:32;62191.22;;;-145.06;100.00
31717;BME280;18301;51.076;17.046;2023-06-22T23:28:34;62191.22;;;-145.06;100.00
31717;BME280;18301;51.076;17.046;2023-06-22T23:33:38;62191.22;;;-145.06;100.00
31717;BME280;18301;51.076;17.046;2023-06-22T23:38:41;62191.22;;;-145.06;100.00
31717;BME280;18301;51.076;17.046;2023-06-22T23:43:42;62191.22;;;-145.06;100.00
31717;BME280;18301;51.076;17.046;2023-06-22T23:48:44;62191.22;;;-145.06;100.00
31717;BME280;18301;51.076;17.046;2023-06-22T23:53:46;62191.22;;;-145.06;100.00
31717;BME280;18301;51.076;17.046;2023-06-22T23:58:51;62191.22;;;-145.06;100.00
